Time;durP1;ratioP1;P1;durP2;ratioP2;P2;SDS_P1;SDS_P2;PMS_P1;PMS_P2;Temp;Humidity;BMP_temperature;BMP_pressure;BME280_temperature;BME280_humidity;BME280_pressure;Samples;Min_cycle;Max_cycle;Signal;HPM_P1;HPM_P2
2022/12/08 00:02:41;;;;;;;14.17;11.37;;;;;;;0.06;79.45;99966.91;10126776;29;20240;-81
2022/12/08 00:13:43;;;;;;;15.07;12.80;;;;;;;-0.08;80.28;99963.03;10114131;29;20232;-80
2022/12/08 00:19:06;;;;;;;18.53;13.87;;;;;;;0.35;78.54;99945.94;10091442;29;20241;-80
2022/12/08 00:24:30;;;;;;;17.23;14.50;;;;;;;0.07;79.55;99943.66;10126941;29;20237;-80
2022/12/08 00:29:52;;;;;;;18.93;13.87;;;;;;;0.45;78.26;99940.38;10108722;29;20249;-80
2022/12/08 00:35:16;;;;;;;20.17;15.77;;;;;;;0.29;79.09;99941.47;10108045;29;20331;-80
2022/12/08 00:40:45;;;;;;;21.90;16.20;;;;;;;0.44;78.13;99933.16;10117370;29;20232;-80
2022/12/08 00:46:07;;;;;;;25.40;17.87;;;;;;;0.20;78.79;99929.25;10113025;29;20249;-81
2022/12/08 00:51:29;;;;;;;26.00;18.30;;;;;;;0.19;79.66;99922.03;10069665;29;20555;-80
2022/12/08 00:56:52;;;;;;;24.07;17.90;;;;;;;0.14;78.35;99924.84;10063173;29;20889;-80
2022/12/08 01:02:14;;;;;;;25.20;19.17;;;;;;;0.51;77.13;99924.56;10073176;29;20246;-80
2022/12/08 01:07:36;;;;;;;22.00;17.20;;;;;;;0.02;79.79;99913.19;10068701;29;20279;-80
2022/12/08 01:12:58;;;;;;;23.10;19.00;;;;;;;0.19;78.79;99897.94;10064142;29;20233;-80
2022/12/08 01:18:20;;;;;;;25.83;18.33;;;;;;;0.45;77.99;99897.94;10061113;29;20281;-80
2022/12/08 01:23:43;;;;;;;21.83;16.87;;;;;;;0.19;78.56;99905.41;10078891;29;20209;-80
2022/12/08 01:29:05;;;;;;;19.67;16.37;;;;;;;0.05;78.71;99905.13;10074441;29;20305;-80
2022/12/08 01:34:27;;;;;;;19.33;16.23;;;;;;;0.50;75.25;99904.34;10079276;29;20253;-80
2022/12/08 01:39:49;;;;;;;19.67;17.53;;;;;;;0.28;76.78;99902.94;10076017;29;20198;-80
2022/12/08 01:45:30;;;;;;;20.33;16.47;;;;;;;0.44;77.23;99905.44;10091159;29;20221;-80
2022/12/08 01:50:53;;;;;;;19.50;16.43;;;;;;;0.46;76.74;99907.94;10086421;29;20244;-80
2022/12/08 01:56:19;;;;;;;19.67;15.60;;;;;;;0.39;76.39;99893.53;10132232;29;20272;-80
2022/12/08 02:01:43;;;;;;;20.93;15.17;;;;;;;0.13;77.75;99899.06;10092722;29;20197;-80
2022/12/08 02:07:07;;;;;;;17.17;14.90;;;;;;;0.21;76.47;99892.13;10134252;29;20300;-80
2022/12/08 02:12:29;;;;;;;17.80;15.20;;;;;;;0.19;77.53;99892.41;10066550;29;20294;-80
2022/12/08 02:18:09;;;;;;;20.27;16.97;;;;;;;0.04;77.75;99880.50;10082139;29;20221;-81
2022/12/08 02:23:37;;;;;;;21.57;16.97;;;;;;;0.30;77.27;99876.63;10124474;29;20284;-80
2022/12/08 02:29:21;;;;;;;19.03;16.37;;;;;;;0.09;77.16;99877.72;10116904;29;20244;-81
2022/12/08 02:34:47;;;;;;;21.67;16.47;;;;;;;0.32;77.51;99863.31;10131325;29;20201;-81
2022/12/08 02:40:36;;;;;;;23.10;16.93;;;;;;;0.29;77.24;99860.25;10117853;29;20221;-81
2022/12/08 02:46:02;;;;;;;23.77;18.33;;;;;;;0.21;77.20;99853.31;10114985;29;20332;-82
2022/12/08 02:51:24;;;;;;;22.77;18.83;;;;;;;0.14;77.49;99850.84;10112217;29;20268;-80
2022/12/08 02:57:12;;;;;;;21.23;18.07;;;;;;;0.51;76.47;99833.06;10117635;29;20320;-80
2022/12/08 03:02:51;;;;;;;22.47;18.00;;;;;;;0.17;77.79;99821.75;10116777;29;20257;-79
2022/12/08 03:08:34;;;;;;;23.53;19.13;;;;;;;-0.07;78.98;99827.00;10122984;29;20651;-80
2022/12/08 03:13:59;;;;;;;24.07;17.07;;;;;;;-0.17;78.63;99825.06;10132240;29;20197;-79
2022/12/08 03:19:34;;;;;;;23.30;18.87;;;;;;;0.29;77.46;99810.38;10115984;29;20261;-79
2022/12/08 03:24:56;;;;;;;23.87;18.53;;;;;;;0.12;78.09;99800.41;10119701;29;20607;-80
2022/12/08 03:30:18;;;;;;;23.63;17.97;;;;;;;0.08;77.09;99798.47;10091823;29;20253;-79
2022/12/08 03:35:41;;;;;;;25.57;18.70;;;;;;;0.09;78.27;99794.59;10122706;29;20634;-79
2022/12/08 03:41:18;;;;;;;23.33;17.53;;;;;;;0.20;77.95;99776.84;10122719;29;20198;-79
2022/12/08 03:46:40;;;;;;;25.80;18.53;;;;;;;0.23;78.13;99779.06;10104492;29;20217;-79
2022/12/08 03:52:03;;;;;;;23.43;18.40;;;;;;;0.43;77.39;99767.97;10080722;29;20634;-80
2022/12/08 03:57:25;;;;;;;27.97;19.43;;;;;;;0.36;78.22;99759.09;10084783;29;20265;-80
2022/12/08 04:02:47;;;;;;;25.83;17.43;;;;;;;0.40;78.66;99757.44;10079643;29;20667;-80
2022/12/08 04:08:09;;;;;;;21.53;16.90;;;;;;;0.35;78.33;99751.06;10067334;29;20253;-80
2022/12/08 04:13:37;;;;;;;22.47;17.43;;;;;;;0.17;79.58;99749.72;10060652;29;20238;-80
2022/12/08 04:19:00;;;;;;;22.37;17.33;;;;;;;0.45;78.04;99746.31;10045713;29;20274;-80
2022/12/08 04:24:22;;;;;;;20.80;15.57;;;;;;;-0.06;80.51;99742.81;10077745;29;20254;-80
2022/12/08 04:29:44;;;;;;;22.27;16.77;;;;;;;0.21;79.76;99742.47;10068208;29;20241;-80
2022/12/08 04:35:06;;;;;;;20.53;16.17;;;;;;;0.16;79.49;99726.72;10068500;29;20226;-80
2022/12/08 04:40:28;;;;;;;19.07;14.40;;;;;;;-0.14;79.93;99735.91;10072650;29;20226;-80
2022/12/08 04:45:50;;;;;;;20.77;15.67;;;;;;;0.40;77.81;99732.47;10071046;29;20607;-80
2022/12/08 04:51:17;;;;;;;20.97;15.33;;;;;;;0.03;80.03;99721.75;10108734;29;20560;-80
2022/12/08 04:56:39;;;;;;;18.97;15.17;;;;;;;0.22;79.71;99721.97;10109497;29;20280;-81
2022/12/08 05:02:01;;;;;;;22.17;15.67;;;;;;;0.52;78.44;99729.38;10117938;29;20971;-80
2022/12/08 05:07:23;;;;;;;21.83;15.00;;;;;;;-0.08;80.15;99722.84;10116341;29;20308;-81
2022/12/08 05:12:45;;;;;;;20.30;14.87;;;;;;;-0.02;80.45;99718.16;10127349;29;20511;-80
2022/12/08 05:18:07;;;;;;;17.90;13.00;;;;;;;-0.21;81.12;99710.41;10100286;29;20198;-80
2022/12/08 05:23:29;;;;;;;17.77;13.00;;;;;;;0.30;79.06;99715.03;10113750;29;20610;-80
2022/12/08 05:28:52;;;;;;;15.97;11.73;;;;;;;0.14;80.29;99714.25;10114553;29;20252;-80
2022/12/08 05:34:14;;;;;;;13.43;11.10;;;;;;;-0.23;81.37;99700.75;10101867;29;20221;-81
2022/12/08 05:39:36;;;;;;;13.53;10.87;;;;;;;-0.43;81.75;99704.34;10118002;29;20225;-81
2022/12/08 05:44:59;;;;;;;14.57;10.10;;;;;;;-0.09;80.57;99695.47;10131071;29;20222;-79
2022/12/08 05:50:21;;;;;;;11.53;9.77;;;;;;;0.04;80.45;99695.72;10085903;29;20789;-79
2022/12/08 05:55:43;;;;;;;13.80;10.80;;;;;;;-0.32;82.64;99686.63;10094060;29;20213;-80
2022/12/08 06:01:05;;;;;;;13.33;10.27;;;;;;;-0.04;81.74;99676.88;10134125;29;20194;-81
2022/12/08 06:06:29;;;;;;;13.67;11.17;;;;;;;-0.12;82.13;99669.97;10118543;29;20222;-79
2022/12/08 06:11:51;;;;;;;15.30;11.53;;;;;;;-0.30;82.99;99670.56;10107268;29;20606;-80
2022/12/08 06:17:13;;;;;;;14.50;11.70;;;;;;;-0.01;81.25;99664.41;10123631;29;20658;-81
2022/12/08 06:22:35;;;;;;;17.80;13.03;;;;;;;-0.02;81.55;99669.13;10110103;29;20197;-81
2022/12/08 06:27:58;;;;;;;18.40;13.70;;;;;;;-0.12;81.85;99669.97;10120175;29;20294;-81
2022/12/08 06:33:20;;;;;;;17.27;13.53;;;;;;;0.15;80.98;99657.72;10120420;29;20201;-82
2022/12/08 06:38:42;;;;;;;19.83;14.00;;;;;;;-0.51;83.08;99677.25;10124095;29;20269;-82
2022/12/08 06:44:04;;;;;;;18.17;14.70;;;;;;;0.14;81.53;99669.91;10120725;29;20257;-82
2022/12/08 06:49:26;;;;;;;15.93;12.77;;;;;;;-0.07;82.38;99673.81;10116236;29;20265;-81
2022/12/08 06:54:48;;;;;;;16.43;12.43;;;;;;;0.13;81.46;99671.84;10126751;29;20249;-81
2022/12/08 07:00:11;;;;;;;14.40;11.43;;;;;;;0.22;80.90;99664.59;10092494;29;20538;-81
2022/12/08 07:05:34;;;;;;;11.27;8.50;;;;;;;-0.07;80.74;99671.88;10097998;29;20205;-81
2022/12/08 07:10:56;;;;;;;11.13;9.10;;;;;;;0.12;79.64;99674.91;10114063;29;20248;-81
2022/12/08 07:16:19;;;;;;;12.23;8.87;;;;;;;-0.18;81.16;99681.34;10117986;29;20674;-81
2022/12/08 07:21:41;;;;;;;12.50;9.77;;;;;;;0.06;80.84;99687.09;10127324;29;20548;-81
2022/12/08 07:27:03;;;;;;;11.60;9.73;;;;;;;-0.09;81.46;99689.94;10111427;29;20201;-81
2022/12/08 07:32:25;;;;;;;15.83;10.20;;;;;;;-0.25;81.67;99683.59;10114911;29;20229;-81
2022/12/08 07:37:47;;;;;;;14.63;10.63;;;;;;;-0.31;82.11;99671.66;10098355;29;20253;-81
2022/12/08 07:43:09;;;;;;;13.77;10.57;;;;;;;-0.15;81.08;99681.63;10094609;29;20681;-81
2022/12/08 07:48:32;;;;;;;15.20;10.33;;;;;;;0.14;79.90;99681.00;10119414;29;20248;-82
2022/12/08 07:53:54;;;;;;;14.33;10.73;;;;;;;0.20;79.64;99680.66;10102263;29;20205;-81
2022/12/08 07:59:16;;;;;;;11.13;9.20;;;;;;;-0.01;80.15;99676.31;10132812;29;20265;-81
2022/12/08 08:04:38;;;;;;;12.87;9.83;;;;;;;-0.08;81.23;99680.50;10113211;29;20228;-81
2022/12/08 08:10:00;;;;;;;11.23;8.97;;;;;;;-0.25;81.30;99669.72;10126373;29;20260;-81
2022/12/08 08:15:22;;;;;;;13.63;9.50;;;;;;;-0.41;82.32;99668.09;10115615;29;20209;-81
2022/12/08 08:20:44;;;;;;;12.77;9.83;;;;;;;0.27;81.01;99676.78;10117873;29;20225;-81
2022/12/08 08:26:07;;;;;;;13.90;10.20;;;;;;;0.02;80.39;99680.47;10124118;29;20292;-81
2022/12/08 08:31:29;;;;;;;13.30;10.80;;;;;;;-0.02;81.23;99679.38;10138873;29;20678;-81
2022/12/08 08:36:51;;;;;;;12.90;10.40;;;;;;;0.03;80.58;99679.38;10131863;29;20230;-81
2022/12/08 08:42:13;;;;;;;11.00;9.17;;;;;;;-0.11;81.31;99684.66;10137222;29;20217;-81
2022/12/08 08:47:35;;;;;;;12.67;9.33;;;;;;;-0.15;81.55;99683.56;10124084;29;20197;-81
2022/12/08 08:52:57;;;;;;;10.80;9.43;;;;;;;0.05;79.94;99686.25;10079568;29;20761;-81
2022/12/08 08:58:19;;;;;;;9.53;8.10;;;;;;;-0.28;81.84;99686.91;10083700;29;20684;-81
2022/12/08 09:03:43;;;;;;;9.87;8.27;;;;;;;-0.30;81.27;99683.56;10088781;29;20225;-82
2022/12/08 09:09:05;;;;;;;11.67;10.47;;;;;;;-0.30;82.72;99684.41;10094953;29;20532;-81
2022/12/08 09:14:27;;;;;;;11.30;10.03;;;;;;;-0.41;81.17;99684.69;10084997;29;20221;-81
2022/12/08 09:19:49;;;;;;;13.00;10.53;;;;;;;-0.12;80.45;99692.13;10082916;29;20599;-82
2022/12/08 09:25:12;;;;;;;11.60;10.40;;;;;;;0.09;79.63;99695.69;10084117;29;20198;-82
2022/12/08 09:30:34;;;;;;;11.23;10.03;;;;;;;-0.37;81.02;99699.66;10097997;29;20222;-81
2022/12/08 09:36:01;;;;;;;12.13;10.73;;;;;;;0.02;80.33;99699.88;10080438;29;20198;-81
2022/12/08 09:42:02;;;;;;;12.87;10.77;;;;;;;-0.17;81.27;99694.06;10080576;29;20783;-81
2022/12/08 09:47:41;;;;;;;12.60;11.30;;;;;;;-0.32;81.41;99692.16;10084395;29;20202;-81
2022/12/08 09:53:09;;;;;;;10.93;9.83;;;;;;;-0.07;81.44;99693.22;10098021;29;20226;-81
2022/12/08 09:58:52;;;;;;;12.40;9.70;;;;;;;0.29;79.05;99703.09;10090526;29;20198;-81
2022/12/08 10:04:27;;;;;;;10.57;9.07;;;;;;;-0.08;80.80;99694.34;10061621;29;20210;-81
2022/12/08 10:10:13;;;;;;;10.33;8.80;;;;;;;-0.39;82.00;99697.16;10091466;29;20274;-83
2022/12/08 10:15:58;;;;;;;10.80;8.83;;;;;;;-0.07;80.51;99693.22;10077849;29;20202;-81
2022/12/08 10:21:24;;;;;;;10.40;9.37;;;;;;;-0.12;79.99;99691.31;10079343;29;20226;-81
2022/12/08 10:26:46;;;;;;;11.53;9.83;;;;;;;-0.59;82.83;99697.16;10080443;29;20235;-81
2022/12/08 10:32:22;;;;;;;11.30;10.10;;;;;;;-0.43;82.27;99678.63;10069986;29;20237;-82
2022/12/08 10:37:55;;;;;;;12.70;9.57;;;;;;;-0.28;80.26;99676.66;10070754;29;20202;-81
2022/12/08 10:43:23;;;;;;;11.23;10.10;;;;;;;-0.39;80.98;99680.56;10092921;29;20201;-82
2022/12/08 10:48:54;;;;;;;10.23;9.23;;;;;;;-0.53;81.05;99679.47;10071928;29;20463;-81
2022/12/08 10:54:35;;;;;;;11.17;9.17;;;;;;;-0.47;80.29;99675.56;10120348;29;20198;-82
2022/12/08 10:59:57;;;;;;;11.20;8.23;;;;;;;-0.10;80.04;99672.47;10111176;29;20198;-82
2022/12/08 11:05:23;;;;;;;10.00;8.77;;;;;;;0.24;79.12;99667.09;10092751;29;20502;-84
2022/12/08 11:10:45;;;;;;;10.83;9.10;;;;;;;0.22;79.78;99669.31;10108891;29;20323;-82
2022/12/08 11:16:10;;;;;;;10.30;8.70;;;;;;;-0.21;81.14;99666.09;10098103;29;20209;-81
2022/12/08 11:21:36;;;;;;;11.63;9.23;;;;;;;-0.28;80.55;99653.66;10088322;29;20205;-81
2022/12/08 11:27:01;;;;;;;12.13;9.47;;;;;;;-0.23;80.67;99656.44;10100203;29;20205;-82
2022/12/08 11:32:23;;;;;;;10.97;9.03;;;;;;;-0.46;81.12;99650.38;10106718;29;20250;-82
2022/12/08 11:37:45;;;;;;;12.33;9.53;;;;;;;-0.42;81.59;99647.88;10099893;29;20611;-82
2022/12/08 11:43:15;;;;;;;10.63;8.93;;;;;;;-0.47;80.80;99647.88;10095244;29;20273;-82
2022/12/08 11:48:45;;;;;;;10.67;8.90;;;;;;;-0.48;81.72;99644.31;10107634;29;20232;-82
2022/12/08 11:54:21;;;;;;;10.77;9.67;;;;;;;-0.19;80.07;99641.72;10109029;29;20201;-82
2022/12/08 11:59:46;;;;;;;10.67;9.57;;;;;;;-0.29;78.34;99641.75;10118883;29;20194;-82
2022/12/08 12:05:55;;;;;;;11.00;9.90;;;;;;;-0.49;80.99;99639.06;10121544;29;20678;-83
2022/12/08 12:17:25;;;;;;;11.30;9.83;;;;;;;-0.31;79.47;99635.69;10121917;29;20200;-82
2022/12/08 12:22:55;;;;;;;10.67;9.53;;;;;;;-0.33;79.33;99640.66;10134469;29;20205;-82
2022/12/08 12:28:18;;;;;;;11.07;9.73;;;;;;;-0.13;77.98;99640.63;10128367;29;20264;-81
2022/12/08 12:33:42;;;;;;;9.47;8.57;;;;;;;-0.63;78.19;99630.50;10100411;29;20197;-81
2022/12/08 12:39:10;;;;;;;9.60;8.60;;;;;;;-0.72;78.09;99642.38;10125355;29;20257;-81
2022/12/08 12:44:32;;;;;;;8.00;7.30;;;;;;;-0.62;76.66;99637.69;10117565;29;20261;-81
2022/12/08 12:50:05;;;;;;;5.90;5.30;;;;;;;-1.25;78.35;99636.28;10119012;29;20241;-81
2022/12/08 12:55:48;;;;;;;7.10;6.40;;;;;;;-1.08;78.26;99630.47;10133202;29;20205;-80
2022/12/08 13:01:11;;;;;;;9.03;8.07;;;;;;;-0.98;77.48;99634.06;10129857;29;20272;-81
2022/12/08 13:06:40;;;;;;;8.40;7.60;;;;;;;-1.53;78.89;99643.13;10136842;29;20201;-81
2022/12/08 13:12:19;;;;;;;6.67;5.60;;;;;;;-1.15;77.47;99628.00;10128026;29;20229;-81
2022/12/08 13:17:43;;;;;;;6.07;4.90;;;;;;;-1.16;77.71;99631.88;10109410;29;20257;-81
2022/12/08 13:23:25;;;;;;;5.43;4.93;;;;;;;-1.05;76.87;99633.53;10124789;29;20197;-81
2022/12/08 13:29:02;;;;;;;6.97;6.30;;;;;;;-0.98;78.07;99628.53;10105157;29;20264;-81
2022/12/08 13:34:44;;;;;;;7.23;6.53;;;;;;;-0.76;77.21;99622.75;10140563;29;20562;-81
2022/12/08 13:40:15;;;;;;;8.20;7.40;;;;;;;-0.98;77.90;99617.47;10109843;29;20210;-81
2022/12/08 13:45:39;;;;;;;10.00;8.77;;;;;;;-1.01;79.16;99618.06;10125857;29;20205;-81
2022/12/08 13:51:17;;;;;;;10.67;9.57;;;;;;;-0.96;78.73;99609.75;10108110;29;20260;-81
2022/12/08 13:56:41;;;;;;;10.93;8.93;;;;;;;-0.87;79.44;99610.88;10135717;29;20213;-81
2022/12/08 14:02:16;;;;;;;11.97;10.63;;;;;;;-0.77;78.51;99611.97;10098804;29;20262;-81
2022/12/08 14:07:40;;;;;;;11.60;10.40;;;;;;;-0.71;78.77;99616.38;10131138;29;20206;-82
2022/12/08 14:13:10;;;;;;;14.07;10.87;;;;;;;-0.43;77.65;99613.00;10122941;29;20248;-81
2022/12/08 14:18:32;;;;;;;12.90;10.80;;;;;;;-0.37;78.25;99616.59;10123774;29;20544;-81
2022/12/08 14:23:54;;;;;;;15.37;12.03;;;;;;;-0.85;79.36;99611.41;10116876;29;20208;-81
2022/12/08 14:29:41;;;;;;;14.27;11.97;;;;;;;-0.83;80.09;99605.59;10103114;29;20300;-82
2022/12/08 14:35:06;;;;;;;15.90;12.67;;;;;;;-0.54;79.58;99617.72;10114445;29;20487;-82
2022/12/08 14:40:38;;;;;;;14.57;13.07;;;;;;;-0.66;80.14;99614.44;10111753;29;20686;-82
2022/12/08 14:46:18;;;;;;;14.53;12.83;;;;;;;-0.64;80.05;99616.94;10117051;29;20214;-82
2022/12/08 14:51:40;;;;;;;17.13;13.77;;;;;;;-0.63;81.42;99604.75;10123654;29;20233;-82
2022/12/08 14:57:02;;;;;;;16.67;13.17;;;;;;;-0.56;80.53;99608.03;10123560;29;20268;-81
2022/12/08 15:02:29;;;;;;;13.67;11.90;;;;;;;-0.76;79.33;99613.63;10119379;29;20202;-82
2022/12/08 15:07:53;;;;;;;11.33;10.13;;;;;;;-0.93;80.26;99614.72;10107681;29;20205;-82
2022/12/08 15:13:19;;;;;;;11.93;9.70;;;;;;;-0.87;79.83;99616.41;10107252;29;20630;-82
2022/12/08 15:18:41;;;;;;;11.63;8.37;;;;;;;-0.59;78.37;99614.13;10105163;29;20209;-82
2022/12/08 15:24:04;;;;;;;6.73;6.03;;;;;;;-0.61;78.53;99616.38;10129641;29;20197;-82
2022/12/08 15:29:28;;;;;;;9.30;6.33;;;;;;;-0.86;78.66;99620.00;10122988;29;20247;-81
2022/12/08 15:34:50;;;;;;;10.13;8.13;;;;;;;-0.65;77.69;99624.41;10110628;29;20225;-82
2022/12/08 15:40:18;;;;;;;12.90;9.90;;;;;;;-0.50;78.71;99629.09;10106731;29;20256;-83
2022/12/08 15:45:40;;;;;;;14.43;12.60;;;;;;;-0.53;79.20;99621.34;10121019;29;20221;-82
2022/12/08 15:51:02;;;;;;;16.00;13.97;;;;;;;-0.27;76.71;99620.16;10110268;29;20285;-81
2022/12/08 15:56:24;;;;;;;17.00;14.07;;;;;;;-0.33;78.29;99618.50;10118155;29;20197;-81
2022/12/08 16:01:47;;;;;;;17.03;13.93;;;;;;;-0.30;78.50;99623.50;10111176;29;20572;-82
2022/12/08 16:07:22;;;;;;;16.60;14.07;;;;;;;-0.23;78.15;99629.59;10116119;29;20229;-82
2022/12/08 16:18:27;;;;;;;14.33;12.83;;;;;;;-0.24;77.86;99627.09;10097558;29;20261;-82
2022/12/08 16:23:49;;;;;;;16.83;13.83;;;;;;;-0.20;77.48;99617.91;10112252;29;20584;-82
2022/12/08 16:29:17;;;;;;;15.37;13.67;;;;;;;-0.31;77.46;99621.84;10110377;29;20252;-81
2022/12/08 16:34:40;;;;;;;19.73;14.83;;;;;;;-0.42;78.07;99619.38;10111556;29;20206;-83
2022/12/08 16:40:03;;;;;;;15.27;13.57;;;;;;;-0.35;77.90;99615.22;10101267;29;20282;-81
2022/12/08 16:45:29;;;;;;;18.33;14.33;;;;;;;-0.07;77.48;99621.19;10115135;29;20228;-82
2022/12/08 16:50:52;;;;;;;27.80;21.13;;;;;;;-0.07;77.45;99610.13;10115848;29;20260;-82
2022/12/08 16:56:19;;;;;;;20.57;16.30;;;;;;;0.11;76.77;99615.03;10104511;29;20610;-81
2022/12/08 17:01:41;;;;;;;18.20;15.47;;;;;;;-0.06;78.82;99611.78;10101442;29;20615;-80
2022/12/08 17:07:04;;;;;;;19.27;16.50;;;;;;;-0.32;79.28;99614.63;10112849;29;20253;-82
2022/12/08 17:12:26;;;;;;;24.40;18.17;;;;;;;-0.07;77.98;99615.66;10125229;29;20248;-82
2022/12/08 17:17:49;;;;;;;23.47;17.47;;;;;;;-0.27;79.26;99617.41;10114914;29;22028;-82
2022/12/08 17:23:11;;;;;;;23.93;16.70;;;;;;;-0.25;78.51;99620.72;10110926;29;20284;-83
2022/12/08 17:28:57;;;;;;;18.50;15.43;;;;;;;-0.17;78.44;99620.13;10116129;29;20629;-81
2022/12/08 17:34:20;;;;;;;16.87;14.47;;;;;;;-0.14;78.66;99611.25;10108593;29;20268;-81
2022/12/08 17:39:42;;;;;;;20.30;15.53;;;;;;;-0.63;80.84;99616.66;10112674;29;20294;-82
2022/12/08 17:45:05;;;;;;;20.93;17.37;;;;;;;-0.42;80.79;99614.66;10115670;29;20229;-82
2022/12/08 17:50:27;;;;;;;22.13;16.07;;;;;;;-0.52;79.74;99620.22;10096038;29;20725;-81
2022/12/08 17:55:52;;;;;;;18.57;15.80;;;;;;;-0.44;81.42;99614.09;10126053;29;20241;-82
2022/12/08 18:01:14;;;;;;;18.07;14.67;;;;;;;-0.46;80.99;99616.31;10087148;29;20233;-83
2022/12/08 18:06:37;;;;;;;19.27;15.50;;;;;;;-0.64;81.13;99620.53;10112842;29;20233;-84
2022/12/08 18:12:00;;;;;;;19.50;16.27;;;;;;;-0.07;79.59;99602.63;10113399;29;20303;-83
2022/12/08 18:17:22;;;;;;;22.93;15.87;;;;;;;-0.35;79.95;99603.31;10114781;29;20639;-84
2022/12/08 18:22:45;;;;;;;23.10;15.77;;;;;;;-0.32;79.82;99602.72;10123243;29;20853;-81
2022/12/08 18:28:08;;;;;;;20.90;15.43;;;;;;;-0.07;78.84;99601.81;10111017;29;20610;-81
2022/12/08 18:33:31;;;;;;;20.50;15.77;;;;;;;0.03;78.57;99604.56;10120972;29;20674;-81
2022/12/08 18:38:53;;;;;;;21.83;15.70;;;;;;;-0.01;78.65;99606.22;10109256;29;20225;-83
2022/12/08 18:44:15;;;;;;;21.83;16.20;;;;;;;-0.28;79.51;99607.44;10097740;29;20236;-82
2022/12/08 18:49:37;;;;;;;20.27;16.13;;;;;;;-0.00;78.59;99610.66;10108017;29;20285;-82
2022/12/08 18:55:01;;;;;;;20.57;15.70;;;;;;;-0.20;79.38;99612.38;10097357;29;20731;-83
2022/12/08 19:00:23;;;;;;;20.80;16.03;;;;;;;-0.13;78.43;99618.47;10079646;29;20614;-84
2022/12/08 19:05:46;;;;;;;19.10;15.53;;;;;;;0.14;78.27;99611.72;10098306;29;20276;-81
2022/12/08 19:11:23;;;;;;;19.50;15.80;;;;;;;0.24;78.36;99617.19;10118879;29;20240;-81
2022/12/08 19:16:46;;;;;;;20.77;16.40;;;;;;;-0.04;79.00;99615.94;10092411;29;20245;-82
2022/12/08 19:22:08;;;;;;;23.10;16.60;;;;;;;0.15;77.62;99614.22;10113770;29;20277;-81
2022/12/08 19:27:32;;;;;;;24.50;17.40;;;;;;;0.40;76.90;99615.22;10107817;29;20244;-81
2022/12/08 19:32:54;;;;;;;24.60;17.83;;;;;;;-0.15;78.75;99614.31;10120752;29;20244;-81
2022/12/08 19:38:17;;;;;;;23.13;18.20;;;;;;;-0.07;78.89;99607.34;10126524;29;20303;-86
2022/12/08 19:49:20;;;;;;;23.07;16.77;;;;;;;-0.38;79.93;99615.78;10098324;29;20256;-83
2022/12/08 19:54:42;;;;;;;25.63;16.67;;;;;;;-0.36;79.37;99613.56;10097193;29;20260;-82
2022/12/08 20:00:05;;;;;;;20.63;16.50;;;;;;;0.12;77.58;99611.16;10112791;29;20284;-81
2022/12/08 20:05:29;;;;;;;23.23;17.90;;;;;;;-0.29;78.42;99614.06;10112327;29;20630;-81
2022/12/08 20:10:54;;;;;;;26.73;18.77;;;;;;;-0.24;78.29;99625.16;10108663;29;20252;-81
2022/12/08 20:16:17;;;;;;;21.07;17.37;;;;;;;-0.37;79.60;99627.69;10093745;29;20269;-82
2022/12/08 20:21:39;;;;;;;23.23;19.03;;;;;;;-0.16;77.87;99641.19;10106983;29;20316;-81
2022/12/08 20:27:01;;;;;;;22.53;17.57;;;;;;;-0.38;78.99;99637.91;10094861;29;20241;-82
2022/12/08 20:32:23;;;;;;;24.13;19.27;;;;;;;-0.30;78.49;99640.09;10109537;29;20252;-80
2022/12/08 20:37:45;;;;;;;22.93;17.23;;;;;;;-0.29;79.02;99636.22;10111791;29;20193;-81
2022/12/08 20:43:07;;;;;;;24.50;18.00;;;;;;;-0.28;78.68;99635.13;10125896;29;20237;-79
2022/12/08 20:48:29;;;;;;;27.60;19.17;;;;;;;-0.04;78.65;99637.25;10105480;29;20272;-81
2022/12/08 20:53:52;;;;;;;21.73;18.67;;;;;;;0.03;78.50;99648.88;10102969;29;20229;-80
2022/12/08 20:59:15;;;;;;;22.70;18.13;;;;;;;-0.18;78.00;99648.94;10108103;29;20268;-79
2022/12/08 21:04:37;;;;;;;23.37;18.60;;;;;;;-0.04;78.23;99653.88;10127811;29;20600;-81
2022/12/08 21:10:00;;;;;;;21.53;18.20;;;;;;;-0.07;78.99;99659.97;10134543;29;20209;-80
2022/12/08 21:15:22;;;;;;;27.90;18.67;;;;;;;-0.39;78.28;99658.41;10136322;29;20225;-79
2022/12/08 21:20:47;;;;;;;23.97;17.90;;;;;;;-0.55;79.98;99652.06;10130992;29;20209;-79
2022/12/08 21:26:16;;;;;;;24.00;18.90;;;;;;;-0.27;79.07;99649.78;10124447;29;20240;-81
2022/12/08 21:31:39;;;;;;;23.23;16.97;;;;;;;-0.06;77.43;99650.56;10115383;29;20252;-81
2022/12/08 21:37:01;;;;;;;19.83;16.40;;;;;;;-0.20;77.85;99648.38;10112389;29;20623;-81
2022/12/08 21:48:04;;;;;;;20.57;17.10;;;;;;;-0.41;78.20;99646.78;10121426;29;20233;-82
2022/12/08 21:53:26;;;;;;;23.00;17.53;;;;;;;0.11;76.53;99651.06;10140359;29;20692;-82
2022/12/08 21:58:49;;;;;;;22.73;17.67;;;;;;;0.17;76.57;99650.78;10124227;29;20276;-82
2022/12/08 22:04:16;;;;;;;24.57;19.67;;;;;;;0.10;76.73;99649.41;10122894;29;20599;-82
2022/12/08 22:09:38;;;;;;;23.67;18.37;;;;;;;-0.08;77.37;99645.31;10116406;29;20205;-82
2022/12/08 22:15:01;;;;;;;24.87;18.50;;;;;;;-0.02;76.96;99646.97;10123354;29;20642;-80
2022/12/08 22:20:24;;;;;;;22.07;17.37;;;;;;;-0.09;78.01;99653.91;10138681;29;20205;-80
2022/12/08 22:25:57;;;;;;;27.10;17.47;;;;;;;-0.02;77.00;99643.34;10138970;29;20245;-80
2022/12/08 22:31:20;;;;;;;26.40;18.03;;;;;;;-0.15;77.45;99642.84;10101141;29;20566;-82
2022/12/08 22:36:43;;;;;;;23.30;17.10;;;;;;;-0.05;77.38;99641.13;10124381;29;20284;-81
2022/12/08 22:42:05;;;;;;;22.03;17.40;;;;;;;-0.03;77.07;99641.69;10108503;29;20252;-79
2022/12/08 22:47:27;;;;;;;23.97;17.07;;;;;;;-0.11;77.70;99643.94;10120955;29;20205;-80
2022/12/08 22:52:49;;;;;;;20.97;15.93;;;;;;;-0.43;77.21;99642.63;10138651;29;20288;-80
2022/12/08 22:58:12;;;;;;;21.17;16.27;;;;;;;-0.02;76.67;99646.13;10119332;29;20230;-80
2022/12/08 23:03:34;;;;;;;21.37;17.00;;;;;;;-0.04;76.71;99643.63;10115102;29;20257;-80
2022/12/08 23:08:56;;;;;;;24.53;17.93;;;;;;;-0.06;77.54;99639.47;10101976;29;20217;-80
2022/12/08 23:14:19;;;;;;;24.10;18.60;;;;;;;-0.21;78.24;99637.63;10116696;29;20628;-80
2022/12/08 23:19:41;;;;;;;21.97;17.17;;;;;;;-0.17;77.78;99628.44;10103981;29;20249;-81
2022/12/08 23:25:04;;;;;;;25.43;18.50;;;;;;;-0.11;77.81;99632.88;10137202;29;20256;-79
2022/12/08 23:30:26;;;;;;;25.03;17.70;;;;;;;-0.50;79.30;99626.31;10106275;29;20205;-82
2022/12/08 23:35:56;;;;;;;22.20;17.23;;;;;;;-0.65;79.77;99626.34;10113142;29;20312;-80
2022/12/08 23:41:18;;;;;;;23.27;17.27;;;;;;;-0.38;78.16;99629.63;10119894;29;20197;-80
2022/12/08 23:46:40;;;;;;;22.13;16.87;;;;;;;-0.55;77.74;99627.16;10119457;29;20268;-80
2022/12/08 23:52:03;;;;;;;22.13;17.63;;;;;;;-0.70;77.52;99618.03;10135170;29;20233;-80
2022/12/08 23:57:25;;;;;;;24.10;15.83;;;;;;;-0.92;78.01;99627.47;10116935;29;20229;-79
